createdAt,value
2018-03-07T00:00:19.571Z,13.9
2018-03-07T00:01:09.089Z,13.9
2018-03-07T00:01:59.731Z,13.9
2018-03-07T00:02:49.456Z,13.9
2018-03-07T00:03:38.975Z,13.9
2018-03-07T00:04:29.445Z,13.9
2018-03-07T00:05:17.642Z,13.8
2018-03-07T00:06:09.209Z,13.9
2018-03-07T00:06:59.511Z,13.8
2018-03-07T00:07:49.324Z,13.8
2018-03-07T00:08:39.884Z,13.9
2018-03-07T00:09:28.846Z,13.8
2018-03-07T00:10:20.284Z,13.9
2018-03-07T00:11:09.792Z,13.9
2018-03-07T00:12:00.101Z,13.9
2018-03-07T00:12:50.155Z,13.9
2018-03-07T00:13:39.483Z,13.9
2018-03-07T00:14:30.611Z,13.9
2018-03-07T00:15:19.235Z,13.9
2018-03-07T00:16:10.391Z,13.8
2018-03-07T00:17:00.469Z,13.9
2018-03-07T00:17:50.498Z,13.9
2018-03-07T00:18:40.235Z,13.9
2018-03-07T00:19:30.550Z,13.9
2018-03-07T00:20:20.900Z,13.9
2018-03-07T00:21:10.680Z,13.8
2018-03-07T00:22:00.653Z,13.9
2018-03-07T00:22:51.145Z,13.9
2018-03-07T00:23:41.761Z,13.9
2018-03-07T00:24:31.176Z,13.9
2018-03-07T00:25:21.824Z,13.9
2018-03-07T00:26:11.873Z,13.9
2018-03-07T00:27:02.372Z,13.9
2018-03-07T00:27:51.350Z,13.9
2018-03-07T00:28:42.220Z,13.9
2018-03-07T00:29:32.585Z,13.9
2018-03-07T00:30:21.264Z,13.9
2018-03-07T00:31:12.645Z,13.9
2018-03-07T00:32:02.177Z,13.9
2018-03-07T00:32:52.245Z,13.9
2018-03-07T00:33:42.876Z,13.9
2018-03-07T00:34:31.576Z,13.9
2018-03-07T00:35:22.693Z,13.8
2018-03-07T00:36:12.722Z,13.9
2018-03-07T00:37:02.799Z,13.8
2018-03-07T00:37:52.584Z,13.8
2018-03-07T00:38:43.154Z,13.8
2018-03-07T00:39:32.802Z,13.9
2018-03-07T00:40:23.258Z,13.9
2018-03-07T00:41:12.061Z,13.8
2018-03-07T00:42:02.614Z,13.9
2018-03-07T00:42:52.980Z,13.9
2018-03-07T00:43:41.183Z,13.9
2018-03-07T00:44:31.656Z,13.8
2018-03-07T00:45:20.942Z,13.9
2018-03-07T00:46:11.432Z,13.9
2018-03-07T00:47:01.573Z,13.8
2018-03-07T00:47:52.036Z,13.9
2018-03-07T00:48:41.264Z,13.9
2018-03-07T00:49:31.023Z,13.8
2018-03-07T00:50:21.256Z,13.8
2018-03-07T00:51:11.064Z,13.9
2018-03-07T00:52:01.824Z,13.9
2018-03-07T00:52:52.633Z,13.9
2018-03-07T00:53:41.205Z,13.9
2018-03-07T00:54:31.658Z,13.9
2018-03-07T00:55:23.036Z,13.9
2018-03-07T00:56:13.079Z,13.9
2018-03-07T00:57:03.745Z,13.9
2018-03-07T00:57:53.486Z,13.9
2018-03-07T00:58:42.990Z,13.9
2018-03-07T00:59:33.846Z,13.9
2018-03-07T01:00:23.895Z,13.9
2018-03-07T01:01:14.273Z,13.9
2018-03-07T01:02:03.506Z,13.9
2018-03-07T01:02:54.102Z,13.9
2018-03-07T01:03:43.323Z,13.9
2018-03-07T01:04:33.668Z,13.8
2018-03-07T01:05:24.037Z,13.9
2018-03-07T01:06:14.595Z,13.8
2018-03-07T01:07:05.236Z,13.8
2018-03-07T01:07:54.139Z,13.8
2018-03-07T01:08:44.482Z,13.8
2018-03-07T01:09:34.742Z,13.8
2018-03-07T01:10:24.321Z,13.9
2018-03-07T01:11:14.382Z,13.8
2018-03-07T01:12:04.524Z,13.9
2018-03-07T01:12:54.677Z,13.9
2018-03-07T01:13:45.137Z,13.9
2018-03-07T01:14:35.174Z,13.8
2018-03-07T01:15:24.962Z,13.8
2018-03-07T01:16:15.170Z,13.8
2018-03-07T01:17:05.310Z,13.8
2018-03-07T01:17:54.010Z,13.9
2018-03-07T01:18:45.407Z,13.9
2018-03-07T01:19:35.564Z,13.8
2018-03-07T01:20:25.764Z,13.9
2018-03-07T01:21:15.851Z,13.8
2018-03-07T01:22:05.944Z,13.9
2018-03-07T01:22:55.651Z,13.9
2018-03-07T01:23:46.026Z,13.9
2018-03-07T01:24:36.113Z,13.9
2018-03-07T01:25:25.925Z,13.9
2018-03-07T01:26:15.929Z,13.9
2018-03-07T01:27:05.726Z,13.9
2018-03-07T01:27:55.131Z,13.8
2018-03-07T01:28:45.802Z,13.9
2018-03-07T01:29:35.833Z,13.9
2018-03-07T01:30:26.506Z,13.9
2018-03-07T01:31:15.162Z,13.9
2018-03-07T01:32:05.778Z,13.9
2018-03-07T01:32:55.634Z,13.8
2018-03-07T01:33:45.913Z,13.9
2018-03-07T01:34:35.973Z,13.8
2018-03-07T01:35:25.508Z,13.8
2018-03-07T01:36:16.399Z,13.8
2018-03-07T01:37:06.646Z,13.8
2018-03-07T01:37:57.010Z,13.8
2018-03-07T01:38:47.328Z,13.8
2018-03-07T01:39:36.849Z,13.8
2018-03-07T01:40:26.873Z,13.8
2018-03-07T01:41:16.901Z,13.8
2018-03-07T01:42:06.718Z,13.8
2018-03-07T01:42:57.040Z,13.8
2018-03-07T01:43:46.557Z,13.8
2018-03-07T01:44:37.161Z,13.8
2018-03-07T01:45:26.380Z,13.8
2018-03-07T01:46:16.995Z,13.8
2018-03-07T01:47:06.851Z,13.8
2018-03-07T01:47:57.400Z,13.8
2018-03-07T01:48:47.738Z,13.8
2018-03-07T01:49:37.245Z,13.8
2018-03-07T01:50:27.850Z,13.8
2018-03-07T01:51:17.363Z,13.8
2018-03-07T01:52:07.382Z,13.8
2018-03-07T01:52:56.880Z,13.8
2018-03-07T01:53:46.954Z,13.8
2018-03-07T01:54:38.096Z,13.8
2018-03-07T01:55:28.185Z,13.8
2018-03-07T01:56:17.682Z,13.8
2018-03-07T01:57:08.047Z,13.8
2018-03-07T01:57:58.090Z,13.8
2018-03-07T01:58:47.846Z,13.8
2018-03-07T01:59:37.935Z,13.8
2018-03-07T02:00:28.296Z,13.8
2018-03-07T02:01:18.856Z,13.9
2018-03-07T02:02:08.353Z,13.8
2018-03-07T02:02:57.981Z,13.8
2018-03-07T02:03:48.769Z,13.8
2018-03-07T02:04:37.952Z,13.8
2018-03-07T02:05:28.019Z,13.8
2018-03-07T02:06:18.394Z,13.8
2018-03-07T02:07:07.559Z,13.8
2018-03-07T02:07:57.660Z,13.8
2018-03-07T02:08:48.626Z,13.8
2018-03-07T02:09:38.667Z,13.8
2018-03-07T02:10:29.242Z,13.8
2018-03-07T02:11:18.987Z,13.8
2018-03-07T02:12:09.319Z,13.8
2018-03-07T02:12:57.546Z,13.8
2018-03-07T02:13:48.748Z,13.8
2018-03-07T02:14:38.175Z,13.8
2018-03-07T02:15:28.133Z,13.8
2018-03-07T02:16:17.519Z,13.8
2018-03-07T02:17:08.561Z,13.8
2018-03-07T02:17:58.050Z,13.8
2018-03-07T02:18:48.494Z,13.8
2018-03-07T02:19:37.481Z,13.8
2018-03-07T02:20:28.409Z,13.8
2018-03-07T02:21:17.371Z,13.8
2018-03-07T02:22:08.652Z,13.8
2018-03-07T02:22:57.753Z,13.8
2018-03-07T02:23:47.248Z,13.8
2018-03-07T02:24:38.021Z,13.8
2018-03-07T02:25:28.637Z,13.8
2018-03-07T02:26:18.008Z,13.8
2018-03-07T02:27:08.392Z,13.8
2018-03-07T02:27:58.897Z,13.8
2018-03-07T02:28:48.222Z,13.8
2018-03-07T02:29:39.161Z,13.8
2018-03-07T02:30:27.974Z,13.8
2018-03-07T02:31:18.993Z,13.8
2018-03-07T02:32:09.176Z,13.8
2018-03-07T02:32:58.837Z,13.8
2018-03-07T02:33:49.754Z,13.8
2018-03-07T02:34:38.469Z,13.8
2018-03-07T02:35:30.287Z,13.8
2018-03-07T02:36:19.814Z,13.8
2018-03-07T02:37:10.157Z,13.8
2018-03-07T02:37:58.786Z,13.8
2018-03-07T02:38:49.711Z,13.8
2018-03-07T02:39:39.554Z,13.8
2018-03-07T02:40:29.906Z,13.8
2018-03-07T02:41:19.503Z,13.8
2018-03-07T02:42:08.675Z,13.8
2018-03-07T02:42:58.815Z,13.8
2018-03-07T02:43:50.550Z,13.8
2018-03-07T02:44:38.744Z,13.8
2018-03-07T02:45:30.883Z,13.8
2018-03-07T02:46:20.094Z,13.8
2018-03-07T02:47:10.970Z,13.8
2018-03-07T02:48:01.021Z,13.8
2018-03-07T02:48:51.659Z,13.8
2018-03-07T02:49:41.706Z,13.8
2018-03-07T02:50:31.434Z,13.8
2018-03-07T02:51:21.507Z,13.8
2018-03-07T02:52:12.450Z,13.8
2018-03-07T02:53:01.642Z,13.8
2018-03-07T02:53:51.802Z,13.8
2018-03-07T02:54:42.033Z,13.8
2018-03-07T02:55:31.584Z,13.8
2018-03-07T02:56:21.878Z,13.8
2018-03-07T02:57:11.909Z,13.8
2018-03-07T02:58:01.479Z,13.8
2018-03-07T02:58:52.261Z,13.8
2018-03-07T02:59:42.078Z,13.8
2018-03-07T03:00:32.224Z,13.8
2018-03-07T03:01:22.467Z,13.8
2018-03-07T03:02:12.541Z,13.8
2018-03-07T03:03:02.083Z,13.8
2018-03-07T03:03:52.384Z,13.8
2018-03-07T03:04:42.973Z,13.8
2018-03-07T03:05:32.235Z,13.8
2018-03-07T03:06:22.606Z,13.8
2018-03-07T03:07:12.313Z,13.8
2018-03-07T03:08:02.355Z,13.8
2018-03-07T03:08:52.986Z,13.8
2018-03-07T03:09:42.941Z,13.7
2018-03-07T03:10:33.374Z,13.7
2018-03-07T03:11:23.448Z,13.7
2018-03-07T03:12:13.498Z,13.7
2018-03-07T03:13:02.963Z,13.7
2018-03-07T03:13:53.000Z,13.7
2018-03-07T03:14:43.607Z,13.7
2018-03-07T03:15:32.355Z,13.8
2018-03-07T03:16:24.052Z,13.8
2018-03-07T03:17:13.771Z,13.8
2018-03-07T03:18:03.046Z,13.7
2018-03-07T03:18:53.630Z,13.7
2018-03-07T03:19:44.273Z,13.8
2018-03-07T03:20:33.747Z,13.7
2018-03-07T03:21:24.050Z,13.7
2018-03-07T03:22:14.143Z,13.7
2018-03-07T03:23:03.919Z,13.8
2018-03-07T03:23:54.282Z,13.7
2018-03-07T03:24:43.795Z,13.7
2018-03-07T03:25:34.449Z,13.7
2018-03-07T03:26:23.594Z,13.7
2018-03-07T03:27:14.751Z,13.7
2018-03-07T03:28:03.702Z,13.7
2018-03-07T03:28:54.360Z,13.7
2018-03-07T03:29:44.132Z,13.7
2018-03-07T03:30:33.357Z,13.7
2018-03-07T03:31:24.316Z,13.7
2018-03-07T03:32:14.035Z,13.7
2018-03-07T03:33:04.962Z,13.7
2018-03-07T03:33:54.645Z,13.7
2018-03-07T03:34:44.726Z,13.7
2018-03-07T03:35:34.372Z,13.7
2018-03-07T03:36:23.182Z,13.7
2018-03-07T03:37:13.312Z,13.7
2018-03-07T03:38:04.190Z,13.7
2018-03-07T03:38:53.812Z,13.7
2018-03-07T03:39:44.029Z,13.7
2018-03-07T03:40:34.323Z,13.7
2018-03-07T03:41:23.997Z,13.7
2018-03-07T03:42:13.808Z,13.6
2018-03-07T03:43:05.307Z,13.6
2018-03-07T03:43:55.652Z,13.6
2018-03-07T03:44:45.651Z,13.6
2018-03-07T03:45:35.547Z,13.7
2018-03-07T03:46:25.221Z,13.7
2018-03-07T03:47:15.606Z,13.7
2018-03-07T03:48:05.676Z,13.7
2018-03-07T03:48:55.731Z,13.6
2018-03-07T03:49:45.268Z,13.7
2018-03-07T03:50:35.805Z,13.7
2018-03-07T03:51:26.416Z,13.7
2018-03-07T03:52:15.364Z,13.7
2018-03-07T03:53:06.000Z,13.6
2018-03-07T03:53:55.470Z,13.6
2018-03-07T03:54:46.300Z,13.6
2018-03-07T03:55:35.885Z,13.6
2018-03-07T03:56:25.930Z,13.6
2018-03-07T03:57:15.728Z,13.6
2018-03-07T03:58:06.660Z,13.6
2018-03-07T03:58:56.329Z,13.6
2018-03-07T03:59:46.108Z,13.6
2018-03-07T04:00:36.185Z,13.6
2018-03-07T04:01:26.053Z,13.6
2018-03-07T04:02:15.568Z,13.6
2018-03-07T04:03:05.407Z,13.6
2018-03-07T04:03:56.589Z,13.6
2018-03-07T04:04:46.478Z,13.6
2018-03-07T04:05:36.574Z,13.6
2018-03-07T04:06:27.485Z,13.6
2018-03-07T04:07:16.694Z,13.6
2018-03-07T04:08:05.687Z,13.6
2018-03-07T04:08:57.149Z,13.6
2018-03-07T04:09:47.368Z,13.6
2018-03-07T04:10:37.484Z,13.7
2018-03-07T04:11:26.777Z,13.7
2018-03-07T04:12:17.090Z,13.7
2018-03-07T04:13:06.304Z,13.7
2018-03-07T04:13:56.627Z,13.7
2018-03-07T04:14:47.577Z,13.7
2018-03-07T04:15:36.220Z,13.7
2018-03-07T04:16:26.880Z,13.7
2018-03-07T04:17:17.181Z,13.7
2018-03-07T04:18:07.449Z,13.7
2018-03-07T04:18:57.271Z,13.7
2018-03-07T04:19:47.530Z,13.7
2018-03-07T04:20:37.287Z,13.7
2018-03-07T04:21:28.206Z,13.7
2018-03-07T04:22:17.699Z,13.7
2018-03-07T04:23:07.186Z,13.7
2018-03-07T04:23:57.805Z,13.7
2018-03-07T04:24:47.912Z,13.7
2018-03-07T04:25:38.726Z,13.7
2018-03-07T04:26:28.257Z,13.7
2018-03-07T04:27:18.601Z,13.7
2018-03-07T04:28:08.127Z,13.7
2018-03-07T04:28:57.639Z,13.7
2018-03-07T04:29:48.503Z,13.7
2018-03-07T04:30:38.253Z,13.7
2018-03-07T04:31:28.847Z,13.8
2018-03-07T04:32:18.920Z,13.8
2018-03-07T04:33:09.013Z,13.8
2018-03-07T04:33:57.908Z,13.8
2018-03-07T04:34:48.305Z,13.8
2018-03-07T04:35:38.025Z,13.8
2018-03-07T04:36:27.528Z,13.8
2018-03-07T04:37:19.555Z,13.8
2018-03-07T04:38:08.764Z,13.8
2018-03-07T04:38:58.870Z,13.8
2018-03-07T04:39:48.660Z,13.8
2018-03-07T04:40:38.206Z,13.8
2018-03-07T04:41:29.032Z,13.8
2018-03-07T04:42:19.664Z,13.8
2018-03-07T04:43:09.133Z,13.8
2018-03-07T04:43:59.729Z,13.8
2018-03-07T04:44:49.548Z,13.8
2018-03-07T04:45:39.372Z,13.8
2018-03-07T04:46:29.891Z,13.8
2018-03-07T04:47:19.952Z,13.8
2018-03-07T04:48:10.137Z,13.8
2018-03-07T04:48:59.857Z,13.8
2018-03-07T04:49:49.830Z,13.8
2018-03-07T04:50:40.214Z,13.8
2018-03-07T04:51:30.285Z,13.8
2018-03-07T04:52:18.385Z,13.8
2018-03-07T04:53:08.242Z,13.8
2018-03-07T04:53:58.817Z,13.8
2018-03-07T04:54:48.359Z,13.8
2018-03-07T04:55:38.761Z,13.8
2018-03-07T04:56:27.604Z,13.8
2018-03-07T04:57:21.016Z,13.8
2018-03-07T04:58:10.220Z,13.8
2018-03-07T04:59:00.315Z,13.8
2018-03-07T04:59:49.984Z,13.8
2018-03-07T05:00:40.341Z,13.9
2018-03-07T05:01:31.025Z,13.9
2018-03-07T05:02:20.721Z,13.9
2018-03-07T05:03:11.331Z,13.9
2018-03-07T05:04:00.521Z,13.9
2018-03-07T05:04:51.418Z,13.9
2018-03-07T05:05:40.664Z,13.9
2018-03-07T05:06:31.039Z,13.8
2018-03-07T05:07:21.581Z,13.8
2018-03-07T05:08:11.426Z,13.8
2018-03-07T05:09:01.434Z,13.8
2018-03-07T05:09:51.237Z,13.8
2018-03-07T05:10:41.593Z,13.8
2018-03-07T05:11:31.601Z,13.8
2018-03-07T05:12:21.965Z,13.8
2018-03-07T05:13:11.150Z,13.8
2018-03-07T05:14:00.977Z,13.8
2018-03-07T05:14:51.843Z,13.8
2018-03-07T05:15:42.139Z,13.8
2018-03-07T05:16:31.681Z,13.8
2018-03-07T05:17:22.281Z,13.8
2018-03-07T05:18:11.871Z,13.8
2018-03-07T05:19:02.111Z,13.8
2018-03-07T05:19:52.166Z,13.8
2018-03-07T05:20:42.319Z,13.8
2018-03-07T05:21:32.597Z,13.8
2018-03-07T05:22:22.413Z,13.8
2018-03-07T05:23:12.429Z,13.8
2018-03-07T05:24:01.647Z,13.8
2018-03-07T05:24:51.849Z,13.7
2018-03-07T05:25:42.333Z,13.8
2018-03-07T05:26:31.259Z,13.7
2018-03-07T05:27:22.470Z,13.7
2018-03-07T05:28:12.224Z,13.7
2018-03-07T05:29:02.818Z,13.7
2018-03-07T05:29:52.895Z,13.8
2018-03-07T05:30:42.381Z,13.7
2018-03-07T05:31:33.036Z,13.7
2018-03-07T05:32:22.794Z,13.7
2018-03-07T05:33:13.367Z,13.7
2018-03-07T05:34:02.605Z,13.7
2018-03-07T05:34:53.488Z,13.7
2018-03-07T05:35:43.101Z,13.7
2018-03-07T05:36:33.058Z,13.7
2018-03-07T05:37:23.703Z,13.7
2018-03-07T05:38:13.491Z,13.7
2018-03-07T05:39:03.219Z,13.6
2018-03-07T05:39:53.066Z,13.6
2018-03-07T05:40:43.376Z,13.6
2018-03-07T05:41:33.109Z,13.6
2018-03-07T05:42:23.996Z,13.6
2018-03-07T05:43:13.978Z,13.6
2018-03-07T05:44:02.766Z,13.6
2018-03-07T05:44:53.338Z,13.6
2018-03-07T05:45:43.173Z,13.6
2018-03-07T05:46:33.749Z,13.6
2018-03-07T05:47:23.813Z,13.6
2018-03-07T05:48:13.872Z,13.6
2018-03-07T05:49:04.262Z,13.6
2018-03-07T05:49:53.710Z,13.6
2018-03-07T05:50:43.496Z,13.6
2018-03-07T05:51:34.099Z,13.5
2018-03-07T05:52:23.892Z,13.5
2018-03-07T05:53:14.253Z,13.5
2018-03-07T05:54:04.273Z,13.5
2018-03-07T05:54:54.332Z,13.5
2018-03-07T05:55:43.536Z,13.6
2018-03-07T05:56:34.188Z,13.6
2018-03-07T05:57:23.699Z,13.6
2018-03-07T05:58:14.596Z,13.6
2018-03-07T05:59:04.890Z,13.5
2018-03-07T05:59:54.665Z,13.5
2018-03-07T06:00:44.687Z,13.5
2018-03-07T06:01:34.565Z,13.5
2018-03-07T06:02:24.555Z,13.5
2018-03-07T06:03:15.147Z,13.5
2018-03-07T06:04:04.952Z,13.5
2018-03-07T06:04:54.222Z,13.5
2018-03-07T06:05:44.775Z,13.5
2018-03-07T06:06:34.569Z,13.5
2018-03-07T06:07:24.628Z,13.5
2018-03-07T06:08:14.961Z,13.5
2018-03-07T06:09:05.595Z,13.5
2018-03-07T06:09:55.362Z,13.5
2018-03-07T06:10:44.565Z,13.5
2018-03-07T06:11:35.179Z,13.5
2018-03-07T06:12:25.247Z,13.5
2018-03-07T06:13:14.762Z,13.4
2018-03-07T06:14:05.637Z,13.5
2018-03-07T06:14:55.682Z,13.5
2018-03-07T06:15:46.362Z,13.5
2018-03-07T06:16:35.806Z,13.5
2018-03-07T06:17:25.627Z,13.5
2018-03-07T06:18:16.444Z,13.5
2018-03-07T06:19:05.402Z,13.4
2018-03-07T06:19:55.739Z,13.4
2018-03-07T06:20:46.357Z,13.4
2018-03-07T06:21:35.713Z,13.4
2018-03-07T06:22:25.481Z,13.4
2018-03-07T06:23:15.931Z,13.4
2018-03-07T06:24:06.447Z,13.4
2018-03-07T06:24:55.308Z,13.4
2018-03-07T06:25:45.961Z,13.4
2018-03-07T06:26:36.543Z,13.4
2018-03-07T06:27:25.752Z,13.4
2018-03-07T06:28:16.350Z,13.4
2018-03-07T06:29:06.405Z,13.4
2018-03-07T06:29:56.252Z,13.4
2018-03-07T06:30:45.955Z,13.4
2018-03-07T06:31:36.621Z,13.4
2018-03-07T06:32:26.924Z,13.4
2018-03-07T06:33:17.273Z,13.5
2018-03-07T06:34:07.431Z,13.4
2018-03-07T06:34:57.097Z,13.4
2018-03-07T06:35:46.921Z,13.4
2018-03-07T06:36:36.961Z,13.4
2018-03-07T06:37:27.198Z,13.4
2018-03-07T06:38:16.727Z,13.4
2018-03-07T06:39:07.392Z,13.4
2018-03-07T06:39:54.945Z,13.4
2018-03-07T06:40:47.257Z,13.4
2018-03-07T06:41:36.153Z,13.4
2018-03-07T06:42:25.860Z,13.4
2018-03-07T06:43:15.885Z,13.4
2018-03-07T06:44:06.086Z,13.4
2018-03-07T06:44:55.920Z,13.4
2018-03-07T06:45:44.376Z,13.4
2018-03-07T06:46:35.712Z,13.4
2018-03-07T06:47:26.645Z,13.4
2018-03-07T06:48:16.662Z,13.4
2018-03-07T06:49:05.768Z,13.4
2018-03-07T06:49:55.648Z,13.4
2018-03-07T06:50:47.449Z,13.4
2018-03-07T06:51:36.030Z,13.4
2018-03-07T06:52:26.397Z,13.4
2018-03-07T06:53:18.094Z,13.4
2018-03-07T06:54:06.412Z,13.4
2018-03-07T06:54:56.901Z,13.4
2018-03-07T06:55:47.454Z,13.4
2018-03-07T06:56:35.510Z,13.4
2018-03-07T06:57:26.734Z,13.4
2018-03-07T06:58:17.552Z,13.4
2018-03-07T06:59:06.589Z,13.4
2018-03-07T06:59:59.340Z,13.4
2018-03-07T07:00:48.843Z,13.4
2018-03-07T07:01:39.216Z,13.4
2018-03-07T07:02:28.694Z,13.4
2018-03-07T07:03:19.124Z,13.4
2018-03-07T07:04:08.669Z,13.5
2018-03-07T07:04:58.832Z,13.4
2018-03-07T07:05:49.715Z,13.5
2018-03-07T07:06:39.828Z,13.5
2018-03-07T07:07:29.061Z,13.4
2018-03-07T07:08:19.376Z,13.5
2018-03-07T07:09:09.158Z,13.5
2018-03-07T07:09:58.938Z,13.5
2018-03-07T07:10:49.521Z,13.5
2018-03-07T07:11:39.684Z,13.5
2018-03-07T07:12:29.678Z,13.5
2018-03-07T07:13:19.461Z,13.5
2018-03-07T07:14:09.471Z,13.5
2018-03-07T07:14:57.208Z,13.5
2018-03-07T07:15:48.704Z,13.5
2018-03-07T07:16:38.396Z,13.5
2018-03-07T07:17:27.459Z,13.5
2018-03-07T07:18:18.495Z,13.5
2018-03-07T07:19:07.539Z,13.4
2018-03-07T07:19:58.591Z,13.5
2018-03-07T07:20:49.384Z,13.4
2018-03-07T07:21:39.377Z,13.5
2018-03-07T07:22:28.991Z,13.5
2018-03-07T07:23:19.424Z,13.5
2018-03-07T07:24:09.965Z,13.5
2018-03-07T07:24:59.278Z,13.5
2018-03-07T07:25:49.217Z,13.5
2018-03-07T07:26:40.631Z,13.5
2018-03-07T07:27:30.688Z,13.6
2018-03-07T07:28:20.765Z,13.5
2018-03-07T07:29:10.828Z,13.5
2018-03-07T07:30:00.403Z,13.5
2018-03-07T07:30:50.943Z,13.6
2018-03-07T07:31:40.963Z,13.6
2018-03-07T07:32:30.555Z,13.6
2018-03-07T07:33:19.500Z,13.6
2018-03-07T07:34:08.935Z,13.6
2018-03-07T07:34:59.695Z,13.6
2018-03-07T07:35:49.660Z,13.6
2018-03-07T07:36:40.134Z,13.6
2018-03-07T07:37:30.098Z,13.6
2018-03-07T07:38:20.429Z,13.6
2018-03-07T07:39:10.139Z,13.6
2018-03-07T07:40:00.899Z,13.6
2018-03-07T07:40:49.614Z,13.6
2018-03-07T07:41:40.779Z,13.6
2018-03-07T07:42:30.658Z,13.6
2018-03-07T07:43:22.894Z,13.6
2018-03-07T07:44:12.485Z,13.6
2018-03-07T07:45:01.352Z,13.6
2018-03-07T07:45:51.726Z,13.6
2018-03-07T07:46:41.762Z,13.6
2018-03-07T07:47:32.029Z,13.6
2018-03-07T07:48:22.432Z,13.6
2018-03-07T07:49:11.967Z,13.6
2018-03-07T07:50:02.251Z,13.6
2018-03-07T07:50:52.486Z,13.6
2018-03-07T07:51:42.384Z,13.6
2018-03-07T07:52:31.924Z,13.6
2018-03-07T07:53:22.791Z,13.6
2018-03-07T07:55:30.247Z,13.6
2018-03-07T07:55:40.345Z,13.6
2018-03-07T07:56:31.444Z,13.6
2018-03-07T07:57:21.749Z,13.6
2018-03-07T07:58:11.819Z,13.6
2018-03-07T07:59:01.601Z,13.6
2018-03-07T07:59:52.516Z,13.6
2018-03-07T08:00:42.422Z,13.6
2018-03-07T08:01:30.873Z,13.6
2018-03-07T08:02:20.039Z,13.6
2018-03-07T08:03:11.946Z,13.6
2018-03-07T08:05:05.063Z,13.6
2018-03-07T08:05:14.787Z,13.6
2018-03-07T08:06:05.575Z,13.6
2018-03-07T08:06:55.857Z,13.6
2018-03-07T08:07:44.865Z,13.6
2018-03-07T08:08:47.523Z,13.6
2018-03-07T08:09:26.874Z,13.7
2018-03-07T08:10:14.922Z,13.7
2018-03-07T08:11:04.994Z,13.6
2018-03-07T08:12:36.705Z,13.7
2018-03-07T08:13:36.960Z,13.7
2018-03-07T08:14:26.410Z,13.7
2018-03-07T08:16:46.757Z,13.7
2018-03-07T08:16:58.540Z,13.6
2018-03-07T08:17:48.710Z,13.6
2018-03-07T08:18:38.747Z,13.6
2018-03-07T08:19:29.109Z,13.6
2018-03-07T08:20:19.510Z,13.6
2018-03-07T08:21:08.635Z,13.7
2018-03-07T08:21:59.005Z,13.6
2018-03-07T08:22:49.630Z,13.6
2018-03-07T08:23:39.394Z,13.6
2018-03-07T08:24:29.745Z,13.7
2018-03-07T08:25:19.315Z,13.7
2018-03-07T08:26:09.878Z,13.7
2018-03-07T08:26:59.954Z,13.7
2018-03-07T08:27:50.101Z,13.7
2018-03-07T08:28:40.079Z,13.7
2018-03-07T08:29:30.124Z,13.7
2018-03-07T08:30:19.620Z,13.7
2018-03-07T08:31:10.239Z,13.7
2018-03-07T08:31:59.689Z,13.7
2018-03-07T08:32:49.811Z,13.7
2018-03-07T08:33:40.123Z,13.7
2018-03-07T08:34:30.254Z,13.7
2018-03-07T08:35:20.224Z,13.7
2018-03-07T08:36:10.307Z,13.7
2018-03-07T08:36:59.734Z,13.7
2018-03-07T08:37:50.396Z,13.8
2018-03-07T08:38:39.979Z,13.8
2018-03-07T08:39:30.503Z,13.7
2018-03-07T08:40:20.275Z,13.8
2018-03-07T08:41:10.054Z,13.8
2018-03-07T08:42:00.981Z,13.8
2018-03-07T08:42:50.739Z,13.8
2018-03-07T08:43:41.083Z,13.8
2018-03-07T08:44:30.701Z,13.8
2018-03-07T08:45:20.883Z,13.8
2018-03-07T08:46:11.651Z,13.8
2018-03-07T08:47:00.468Z,13.8
2018-03-07T08:47:50.823Z,13.8
2018-03-07T08:48:41.402Z,13.8
2018-03-07T08:49:31.441Z,13.8
2018-03-07T08:50:21.550Z,13.8
2018-03-07T08:51:10.976Z,13.8
2018-03-07T08:52:01.628Z,13.8
2018-03-07T08:52:50.823Z,13.8
2018-03-07T08:53:40.898Z,13.8
2018-03-07T08:54:30.503Z,13.8
2018-03-07T08:55:21.318Z,13.8
2018-03-07T08:56:11.631Z,13.8
2018-03-07T08:57:00.518Z,13.8
2018-03-07T08:57:51.552Z,13.8
2018-03-07T08:58:41.548Z,13.8
2018-03-07T08:59:27.818Z,13.8
2018-03-07T09:00:21.056Z,13.8
2018-03-07T09:01:11.140Z,13.8
2018-03-07T09:02:00.423Z,13.8
2018-03-07T09:02:49.820Z,13.8
2018-03-07T09:03:39.570Z,13.8
2018-03-07T09:04:31.093Z,13.8
2018-03-07T09:05:21.541Z,13.8
2018-03-07T09:06:11.099Z,13.8
2018-03-07T09:07:01.918Z,13.8
2018-03-07T09:07:51.324Z,13.8
2018-03-07T09:08:42.515Z,13.8
2018-03-07T09:09:32.270Z,13.8
2018-03-07T09:10:23.154Z,13.8
2018-03-07T09:11:12.960Z,13.8
2018-03-07T09:12:02.450Z,13.9
2018-03-07T09:12:51.972Z,13.8
2018-03-07T09:13:42.570Z,13.9
2018-03-07T09:14:32.917Z,13.9
2018-03-07T09:15:22.679Z,13.9
2018-03-07T09:16:12.211Z,13.8
2018-03-07T09:17:03.383Z,13.9
2018-03-07T09:17:52.900Z,13.9
2018-03-07T09:18:42.904Z,13.9
2018-03-07T09:19:32.079Z,13.8
2018-03-07T09:20:23.372Z,13.8
2018-03-07T09:21:13.767Z,13.8
2018-03-07T09:22:03.184Z,13.9
2018-03-07T09:22:53.509Z,13.9
2018-03-07T09:23:43.041Z,13.9
2018-03-07T09:24:33.138Z,13.9
2018-03-07T09:25:22.042Z,13.9
2018-03-07T09:26:12.408Z,13.9
2018-03-07T09:27:03.821Z,13.9
2018-03-07T09:27:53.295Z,13.9
2018-03-07T09:28:43.367Z,13.9
2018-03-07T09:29:32.898Z,13.9
2018-03-07T09:30:23.486Z,13.9
2018-03-07T09:31:12.928Z,13.9
2018-03-07T09:32:03.984Z,13.9
2018-03-07T09:32:54.246Z,13.9
2018-03-07T09:33:43.401Z,13.9
2018-03-07T09:34:33.884Z,13.9
2018-03-07T09:35:24.088Z,13.9
2018-03-07T09:36:13.411Z,13.9
2018-03-07T09:37:03.939Z,13.9
2018-03-07T09:37:54.537Z,13.9
2018-03-07T09:38:44.643Z,13.9
2018-03-07T09:39:34.378Z,13.9
2018-03-07T09:40:25.043Z,13.9
2018-03-07T09:41:14.500Z,13.9
2018-03-07T09:42:04.875Z,13.9
2018-03-07T09:42:54.888Z,13.9
2018-03-07T09:43:44.954Z,14
2018-03-07T09:44:35.072Z,14
2018-03-07T09:45:24.520Z,14
2018-03-07T09:46:15.303Z,13.9
2018-03-07T09:47:04.618Z,14
2018-03-07T09:47:53.937Z,14
2018-03-07T09:48:44.277Z,14
2018-03-07T09:49:34.580Z,14
2018-03-07T09:50:24.690Z,14
2018-03-07T09:51:15.150Z,14
2018-03-07T09:52:03.129Z,13.9
2018-03-07T09:52:52.170Z,14
2018-03-07T09:53:42.558Z,14
2018-03-07T09:54:34.466Z,14
2018-03-07T09:55:23.240Z,14
2018-03-07T09:56:15.361Z,14
2018-03-07T09:57:03.314Z,14
2018-03-07T09:57:53.444Z,14
2018-03-07T09:58:45.082Z,14
2018-03-07T09:59:34.576Z,14
2018-03-07T10:00:22.278Z,14
2018-03-07T10:01:13.527Z,14
2018-03-07T10:02:04.243Z,14
2018-03-07T10:02:53.721Z,14
2018-03-07T10:03:44.039Z,14
2018-03-07T10:04:34.114Z,14
2018-03-07T10:05:25.786Z,14
2018-03-07T10:06:14.980Z,14
2018-03-07T10:07:06.539Z,14
2018-03-07T10:07:55.876Z,13.9
2018-03-07T10:08:45.636Z,13.9
2018-03-07T10:09:36.307Z,13.9
2018-03-07T10:10:25.811Z,14
2018-03-07T10:11:15.387Z,13.9
2018-03-07T10:12:06.700Z,13.9
2018-03-07T10:12:55.419Z,14
2018-03-07T10:13:46.544Z,13.9
2018-03-07T10:14:36.554Z,13.9
2018-03-07T10:15:26.214Z,13.9
2018-03-07T10:18:00.602Z,13.9
2018-03-07T10:18:50.984Z,13.9
2018-03-07T10:19:41.438Z,13.9
2018-03-07T10:20:31.402Z,13.9
2018-03-07T10:21:21.834Z,14
2018-03-07T10:22:12.026Z,13.9
2018-03-07T10:23:02.746Z,13.9
2018-03-07T10:23:52.706Z,13.9
2018-03-07T10:24:41.920Z,13.9
2018-03-07T10:25:32.558Z,13.9
2018-03-07T10:26:22.656Z,14
2018-03-07T10:27:12.400Z,14
2018-03-07T10:28:02.031Z,14
2018-03-07T10:28:52.055Z,14
2018-03-07T10:29:42.668Z,14
2018-03-07T10:30:32.155Z,14
2018-03-07T10:31:22.690Z,14
2018-03-07T10:32:12.539Z,14
2018-03-07T10:33:02.784Z,14
2018-03-07T10:33:52.452Z,14
2018-03-07T10:34:42.990Z,14
2018-03-07T10:35:32.010Z,14
2018-03-07T10:36:22.738Z,14.1
2018-03-07T10:37:13.087Z,14
2018-03-07T10:38:03.219Z,14
2018-03-07T10:38:53.509Z,14
2018-03-07T10:39:43.702Z,14
2018-03-07T10:40:33.336Z,14
2018-03-07T10:41:23.073Z,14
2018-03-07T10:42:13.401Z,14
2018-03-07T10:43:04.057Z,14.1
2018-03-07T10:43:53.260Z,14.1
2018-03-07T10:44:43.446Z,14.1
2018-03-07T10:45:34.222Z,14
2018-03-07T10:46:24.017Z,14.1
2018-03-07T10:47:14.536Z,14.1
2018-03-07T10:48:04.199Z,14
2018-03-07T10:48:54.468Z,14
2018-03-07T10:49:44.553Z,14
2018-03-07T10:50:33.548Z,14.1
2018-03-07T10:51:23.923Z,14
2018-03-07T10:52:11.685Z,14
2018-03-07T10:53:02.431Z,14.1
2018-03-07T10:53:54.016Z,14
2018-03-07T10:54:43.458Z,14
2018-03-07T10:55:33.451Z,14.1
2018-03-07T10:56:23.297Z,14
2018-03-07T10:57:12.881Z,14
2018-03-07T10:58:02.728Z,14
2018-03-07T10:58:55.183Z,14
2018-03-07T10:59:45.226Z,14
2018-03-07T11:00:35.293Z,14
2018-03-07T11:01:24.498Z,14
2018-03-07T11:02:14.662Z,14
2018-03-07T11:03:05.046Z,14
2018-03-07T11:03:55.245Z,14
2018-03-07T11:04:44.760Z,14.1
2018-03-07T11:05:35.382Z,14.1
2018-03-07T11:06:25.192Z,14.1
2018-03-07T11:07:15.480Z,14.1
2018-03-07T11:08:05.251Z,14.1
2018-03-07T11:08:55.912Z,14.1
2018-03-07T11:09:44.767Z,14.2
2018-03-07T11:10:38.692Z,14.2
2018-03-07T11:11:25.732Z,14.2
2018-03-07T11:12:15.809Z,14.2
2018-03-07T11:13:05.618Z,14.2
2018-03-07T11:13:56.244Z,14.2